sensor_id;sensor_type;location;lat;lon;timestamp;temperature;humidity
16243;DHT22;11719;51.052;6.982;2023-05-07T00:00:38;17.80;99.90
16243;DHT22;11719;51.052;6.982;2023-05-07T00:03:05;17.80;99.90
16243;DHT22;11719;51.052;6.982;2023-05-07T00:05:32;17.90;99.90
16243;DHT22;11719;51.052;6.982;2023-05-07T00:07:57;17.90;99.90
16243;DHT22;11719;51.052;6.982;2023-05-07T00:10:23;17.90;99.90
16243;DHT22;11719;51.052;6.982;2023-05-07T00:12:49;17.90;99.90
16243;DHT22;11719;51.052;6.982;2023-05-07T00:15:15;17.90;99.90
16243;DHT22;11719;51.052;6.982;2023-05-07T00:17:40;17.90;99.90
16243;DHT22;11719;51.052;6.982;2023-05-07T00:20:07;17.90;99.90
16243;DHT22;11719;51.052;6.982;2023-05-07T00:22:33;17.90;99.90
16243;DHT22;11719;51.052;6.982;2023-05-07T00:24:59;17.90;99.90
16243;DHT22;11719;51.052;6.982;2023-05-07T00:27:25;18.00;99.90
16243;DHT22;11719;51.052;6.982;2023-05-07T00:29:51;18.00;99.90
16243;DHT22;11719;51.052;6.982;2023-05-07T00:32:16;18.00;99.90
16243;DHT22;11719;51.052;6.982;2023-05-07T00:34:43;18.00;99.90
16243;DHT22;11719;51.052;6.982;2023-05-07T00:37:09;18.00;99.90
16243;DHT22;11719;51.052;6.982;2023-05-07T00:39:35;18.10;99.90
16243;DHT22;11719;51.052;6.982;2023-05-07T00:42:01;18.10;99.90
16243;DHT22;11719;51.052;6.982;2023-05-07T00:44:28;18.10;99.90
16243;DHT22;11719;51.052;6.982;2023-05-07T00:46:56;18.10;99.90
16243;DHT22;11719;51.052;6.982;2023-05-07T00:49:26;18.10;99.90
16243;DHT22;11719;51.052;6.982;2023-05-07T00:52:17;18.20;99.90
16243;DHT22;11719;51.052;6.982;2023-05-07T00:54:44;18.20;99.90
16243;DHT22;11719;51.052;6.982;2023-05-07T00:57:10;18.20;99.90
16243;DHT22;11719;51.052;6.982;2023-05-07T00:59:37;18.20;99.90
16243;DHT22;11719;51.052;6.982;2023-05-07T01:02:03;18.30;99.90
16243;DHT22;11719;51.052;6.982;2023-05-07T01:04:29;18.30;99.90
16243;DHT22;11719;51.052;6.982;2023-05-07T01:06:55;18.30;99.90
16243;DHT22;11719;51.052;6.982;2023-05-07T01:09:25;18.30;99.90
16243;DHT22;11719;51.052;6.982;2023-05-07T01:11:52;18.30;99.90
16243;DHT22;11719;51.052;6.982;2023-05-07T01:14:19;18.20;99.90
16243;DHT22;11719;51.052;6.982;2023-05-07T01:16:46;18.20;99.90
16243;DHT22;11719;51.052;6.982;2023-05-07T01:19:14;18.20;99.90
16243;DHT22;11719;51.052;6.982;2023-05-07T01:21:47;18.20;99.90
16243;DHT22;11719;51.052;6.982;2023-05-07T01:24:14;18.20;99.90
16243;DHT22;11719;51.052;6.982;2023-05-07T01:26:42;18.30;99.90
16243;DHT22;11719;51.052;6.982;2023-05-07T01:29:10;18.30;99.90
16243;DHT22;11719;51.052;6.982;2023-05-07T01:31:37;18.30;99.90
16243;DHT22;11719;51.052;6.982;2023-05-07T01:34:03;18.40;99.90
16243;DHT22;11719;51.052;6.982;2023-05-07T01:36:31;18.40;99.90
16243;DHT22;11719;51.052;6.982;2023-05-07T01:38:58;18.40;99.90
16243;DHT22;11719;51.052;6.982;2023-05-07T01:41:25;18.40;99.90
16243;DHT22;11719;51.052;6.982;2023-05-07T01:43:52;18.40;99.90
16243;DHT22;11719;51.052;6.982;2023-05-07T01:46:18;18.40;99.90
16243;DHT22;11719;51.052;6.982;2023-05-07T01:48:45;18.30;99.90
16243;DHT22;11719;51.052;6.982;2023-05-07T01:51:11;18.20;99.90
16243;DHT22;11719;51.052;6.982;2023-05-07T01:53:38;18.10;99.90
16243;DHT22;11719;51.052;6.982;2023-05-07T01:56:06;18.10;99.90
16243;DHT22;11719;51.052;6.982;2023-05-07T01:58:32;18.00;99.90
16243;DHT22;11719;51.052;6.982;2023-05-07T02:00:58;17.90;99.90
16243;DHT22;11719;51.052;6.982;2023-05-07T02:03:24;17.90;99.90
16243;DHT22;11719;51.052;6.982;2023-05-07T02:05:51;17.90;99.90
16243;DHT22;11719;51.052;6.982;2023-05-07T02:08:16;17.80;99.90
16243;DHT22;11719;51.052;6.982;2023-05-07T02:10:42;17.70;99.90
16243;DHT22;11719;51.052;6.982;2023-05-07T02:13:08;17.70;99.90
16243;DHT22;11719;51.052;6.982;2023-05-07T02:15:34;17.80;99.90
16243;DHT22;11719;51.052;6.982;2023-05-07T02:20:25;17.80;99.90
16243;DHT22;11719;51.052;6.982;2023-05-07T02:22:51;17.70;99.90
16243;DHT22;11719;51.052;6.982;2023-05-07T02:25:17;17.70;99.90
16243;DHT22;11719;51.052;6.982;2023-05-07T02:27:42;17.70;99.90
16243;DHT22;11719;51.052;6.982;2023-05-07T02:30:08;17.70;99.90
16243;DHT22;11719;51.052;6.982;2023-05-07T02:32:34;17.60;99.90
16243;DHT22;11719;51.052;6.982;2023-05-07T02:35:00;17.70;99.90
16243;DHT22;11719;51.052;6.982;2023-05-07T02:37:26;17.60;99.90
16243;DHT22;11719;51.052;6.982;2023-05-07T02:39:51;17.50;99.90
16243;DHT22;11719;51.052;6.982;2023-05-07T02:42:17;17.50;99.90
16243;DHT22;11719;51.052;6.982;2023-05-07T02:44:43;17.50;99.90
16243;DHT22;11719;51.052;6.982;2023-05-07T02:47:09;17.50;99.90
16243;DHT22;11719;51.052;6.982;2023-05-07T02:49:35;17.50;99.90
16243;DHT22;11719;51.052;6.982;2023-05-07T02:52:01;17.50;99.90
16243;DHT22;11719;51.052;6.982;2023-05-07T02:54:27;17.50;99.90
16243;DHT22;11719;51.052;6.982;2023-05-07T02:56:52;17.50;99.90
16243;DHT22;11719;51.052;6.982;2023-05-07T02:59:18;17.60;99.90
16243;DHT22;11719;51.052;6.982;2023-05-07T03:01:44;17.70;99.90
16243;DHT22;11719;51.052;6.982;2023-05-07T03:04:10;17.80;99.90
16243;DHT22;11719;51.052;6.982;2023-05-07T03:06:36;17.80;99.90
16243;DHT22;11719;51.052;6.982;2023-05-07T03:09:02;17.90;99.90
16243;DHT22;11719;51.052;6.982;2023-05-07T03:11:28;17.90;99.90
16243;DHT22;11719;51.052;6.982;2023-05-07T03:13:54;17.90;99.90
16243;DHT22;11719;51.052;6.982;2023-05-07T03:16:20;17.90;99.90
16243;DHT22;11719;51.052;6.982;2023-05-07T03:18:46;17.80;99.90
16243;DHT22;11719;51.052;6.982;2023-05-07T03:21:11;17.70;99.90
16243;DHT22;11719;51.052;6.982;2023-05-07T03:23:37;17.70;99.90
16243;DHT22;11719;51.052;6.982;2023-05-07T03:26:03;17.70;99.90
16243;DHT22;11719;51.052;6.982;2023-05-07T03:28:29;17.70;99.90
16243;DHT22;11719;51.052;6.982;2023-05-07T03:30:55;17.70;99.90
16243;DHT22;11719;51.052;6.982;2023-05-07T03:33:20;17.60;99.90
16243;DHT22;11719;51.052;6.982;2023-05-07T03:35:46;17.60;99.90
16243;DHT22;11719;51.052;6.982;2023-05-07T03:38:12;17.60;99.90
16243;DHT22;11719;51.052;6.982;2023-05-07T03:40:38;17.50;99.90
16243;DHT22;11719;51.052;6.982;2023-05-07T03:43:04;17.50;99.90
16243;DHT22;11719;51.052;6.982;2023-05-07T03:45:29;17.50;99.90
16243;DHT22;11719;51.052;6.982;2023-05-07T03:47:55;17.50;99.90
16243;DHT22;11719;51.052;6.982;2023-05-07T03:50:21;17.50;99.90
16243;DHT22;11719;51.052;6.982;2023-05-07T03:52:47;17.50;99.90
16243;DHT22;11719;51.052;6.982;2023-05-07T03:55:12;17.60;99.90
16243;DHT22;11719;51.052;6.982;2023-05-07T03:57:38;17.70;99.90
16243;DHT22;11719;51.052;6.982;2023-05-07T04:00:04;17.70;99.90
16243;DHT22;11719;51.052;6.982;2023-05-07T04:02:32;17.70;99.90
16243;DHT22;11719;51.052;6.982;2023-05-07T04:04:58;17.60;99.90
16243;DHT22;11719;51.052;6.982;2023-05-07T04:07:24;17.60;99.90
16243;DHT22;11719;51.052;6.982;2023-05-07T04:09:50;17.60;99.90
16243;DHT22;11719;51.052;6.982;2023-05-07T04:12:15;17.50;99.90
16243;DHT22;11719;51.052;6.982;2023-05-07T04:14:41;17.50;99.90
16243;DHT22;11719;51.052;6.982;2023-05-07T04:17:07;17.60;99.90
16243;DHT22;11719;51.052;6.982;2023-05-07T04:19:35;17.60;99.90
16243;DHT22;11719;51.052;6.982;2023-05-07T04:22:00;17.60;99.90
16243;DHT22;11719;51.052;6.982;2023-05-07T04:24:26;17.70;99.90
16243;DHT22;11719;51.052;6.982;2023-05-07T04:26:52;17.70;99.90
16243;DHT22;11719;51.052;6.982;2023-05-07T04:29:18;17.70;99.90
16243;DHT22;11719;51.052;6.982;2023-05-07T04:31:44;17.70;99.90
16243;DHT22;11719;51.052;6.982;2023-05-07T04:34:11;17.60;99.90
16243;DHT22;11719;51.052;6.982;2023-05-07T04:36:38;17.60;99.90
16243;DHT22;11719;51.052;6.982;2023-05-07T04:39:04;17.60;99.90
16243;DHT22;11719;51.052;6.982;2023-05-07T04:41:30;17.70;99.90
16243;DHT22;11719;51.052;6.982;2023-05-07T04:43:56;17.80;99.90
16243;DHT22;11719;51.052;6.982;2023-05-07T04:46:24;17.80;99.90
16243;DHT22;11719;51.052;6.982;2023-05-07T04:48:50;17.90;99.90
16243;DHT22;11719;51.052;6.982;2023-05-07T04:51:16;18.00;99.90
16243;DHT22;11719;51.052;6.982;2023-05-07T04:53:42;18.00;99.90
16243;DHT22;11719;51.052;6.982;2023-05-07T04:56:08;18.10;99.90
16243;DHT22;11719;51.052;6.982;2023-05-07T04:58:34;18.10;99.90
16243;DHT22;11719;51.052;6.982;2023-05-07T05:01:00;18.10;99.90
16243;DHT22;11719;51.052;6.982;2023-05-07T05:03:26;18.20;99.90
16243;DHT22;11719;51.052;6.982;2023-05-07T05:05:52;18.20;99.90
16243;DHT22;11719;51.052;6.982;2023-05-07T05:08:18;18.20;99.90
16243;DHT22;11719;51.052;6.982;2023-05-07T05:10:44;18.20;99.90
16243;DHT22;11719;51.052;6.982;2023-05-07T05:13:10;18.20;99.90
16243;DHT22;11719;51.052;6.982;2023-05-07T05:15:38;18.20;99.90
16243;DHT22;11719;51.052;6.982;2023-05-07T05:18:04;18.20;99.90
16243;DHT22;11719;51.052;6.982;2023-05-07T05:20:30;18.30;99.90
16243;DHT22;11719;51.052;6.982;2023-05-07T05:22:56;18.30;99.90
16243;DHT22;11719;51.052;6.982;2023-05-07T05:25:22;18.30;99.90
16243;DHT22;11719;51.052;6.982;2023-05-07T05:27:48;18.30;99.90
16243;DHT22;11719;51.052;6.982;2023-05-07T05:30:13;18.40;99.90
16243;DHT22;11719;51.052;6.982;2023-05-07T05:32:39;18.40;99.90
16243;DHT22;11719;51.052;6.982;2023-05-07T05:35:05;18.40;99.90
16243;DHT22;11719;51.052;6.982;2023-05-07T05:37:31;18.40;99.90
16243;DHT22;11719;51.052;6.982;2023-05-07T05:39:57;18.30;99.90
16243;DHT22;11719;51.052;6.982;2023-05-07T05:42:23;18.30;99.90
16243;DHT22;11719;51.052;6.982;2023-05-07T05:44:49;18.40;99.90
16243;DHT22;11719;51.052;6.982;2023-05-07T05:47:14;18.40;99.90
16243;DHT22;11719;51.052;6.982;2023-05-07T05:49:40;18.40;99.90
16243;DHT22;11719;51.052;6.982;2023-05-07T05:52:09;18.40;99.90
16243;DHT22;11719;51.052;6.982;2023-05-07T05:54:37;18.40;99.90
16243;DHT22;11719;51.052;6.982;2023-05-07T05:57:02;18.40;99.90
16243;DHT22;11719;51.052;6.982;2023-05-07T05:59:30;18.40;99.90
16243;DHT22;11719;51.052;6.982;2023-05-07T06:01:56;18.40;99.90
16243;DHT22;11719;51.052;6.982;2023-05-07T06:04:21;18.50;99.90
16243;DHT22;11719;51.052;6.982;2023-05-07T06:06:47;18.50;99.90
16243;DHT22;11719;51.052;6.982;2023-05-07T06:09:13;18.50;99.90
16243;DHT22;11719;51.052;6.982;2023-05-07T06:11:39;18.50;99.90
16243;DHT22;11719;51.052;6.982;2023-05-07T06:14:06;18.50;99.90
16243;DHT22;11719;51.052;6.982;2023-05-07T06:16:32;18.50;99.90
16243;DHT22;11719;51.052;6.982;2023-05-07T06:18:57;18.50;99.90
16243;DHT22;11719;51.052;6.982;2023-05-07T06:21:23;18.50;99.90
16243;DHT22;11719;51.052;6.982;2023-05-07T06:23:49;18.50;99.90
16243;DHT22;11719;51.052;6.982;2023-05-07T06:26:17;18.50;99.90
16243;DHT22;11719;51.052;6.982;2023-05-07T06:28:42;18.50;99.90
16243;DHT22;11719;51.052;6.982;2023-05-07T06:33:39;18.50;99.90
16243;DHT22;11719;51.052;6.982;2023-05-07T06:36:13;18.50;99.90
16243;DHT22;11719;51.052;6.982;2023-05-07T06:38:39;18.50;99.90
16243;DHT22;11719;51.052;6.982;2023-05-07T06:41:08;18.50;99.90
16243;DHT22;11719;51.052;6.982;2023-05-07T06:43:34;18.40;99.90
16243;DHT22;11719;51.052;6.982;2023-05-07T06:46:00;18.40;99.90
16243;DHT22;11719;51.052;6.982;2023-05-07T06:48:26;18.40;99.90
16243;DHT22;11719;51.052;6.982;2023-05-07T06:50:52;18.30;99.90
16243;DHT22;11719;51.052;6.982;2023-05-07T06:53:18;18.30;99.90
16243;DHT22;11719;51.052;6.982;2023-05-07T06:55:44;18.30;99.90
16243;DHT22;11719;51.052;6.982;2023-05-07T06:58:09;18.40;99.90
16243;DHT22;11719;51.052;6.982;2023-05-07T07:00:35;18.30;99.90
16243;DHT22;11719;51.052;6.982;2023-05-07T07:03:01;18.30;99.90
16243;DHT22;11719;51.052;6.982;2023-05-07T07:05:27;18.40;99.90
16243;DHT22;11719;51.052;6.982;2023-05-07T07:07:53;18.40;99.90
16243;DHT22;11719;51.052;6.982;2023-05-07T07:10:19;18.40;99.90
16243;DHT22;11719;51.052;6.982;2023-05-07T07:12:45;18.40;99.90
16243;DHT22;11719;51.052;6.982;2023-05-07T07:15:11;18.50;99.90
16243;DHT22;11719;51.052;6.982;2023-05-07T07:17:37;18.50;99.90
16243;DHT22;11719;51.052;6.982;2023-05-07T07:20:03;18.50;99.90
16243;DHT22;11719;51.052;6.982;2023-05-07T07:22:29;18.40;99.90
16243;DHT22;11719;51.052;6.982;2023-05-07T07:24:55;18.40;99.90
16243;DHT22;11719;51.052;6.982;2023-05-07T07:27:21;18.40;99.90
16243;DHT22;11719;51.052;6.982;2023-05-07T07:29:47;18.50;99.90
16243;DHT22;11719;51.052;6.982;2023-05-07T07:32:12;18.50;99.90
16243;DHT22;11719;51.052;6.982;2023-05-07T07:34:38;18.50;99.90
16243;DHT22;11719;51.052;6.982;2023-05-07T07:37:04;18.60;99.90
16243;DHT22;11719;51.052;6.982;2023-05-07T07:39:34;18.60;99.90
16243;DHT22;11719;51.052;6.982;2023-05-07T07:42:00;18.60;99.90
16243;DHT22;11719;51.052;6.982;2023-05-07T07:44:28;18.50;99.90
16243;DHT22;11719;51.052;6.982;2023-05-07T07:46:53;18.50;99.90
16243;DHT22;11719;51.052;6.982;2023-05-07T07:49:19;18.40;99.90
16243;DHT22;11719;51.052;6.982;2023-05-07T07:51:45;18.40;99.90
16243;DHT22;11719;51.052;6.982;2023-05-07T07:54:11;18.40;99.90
16243;DHT22;11719;51.052;6.982;2023-05-07T07:56:37;18.50;99.90
16243;DHT22;11719;51.052;6.982;2023-05-07T07:59:03;18.60;99.90
16243;DHT22;11719;51.052;6.982;2023-05-07T08:01:32;18.60;99.90
16243;DHT22;11719;51.052;6.982;2023-05-07T08:03:58;18.70;99.90
16243;DHT22;11719;51.052;6.982;2023-05-07T08:06:32;18.70;99.90
16243;DHT22;11719;51.052;6.982;2023-05-07T08:08:58;18.70;99.90
16243;DHT22;11719;51.052;6.982;2023-05-07T08:11:24;18.80;99.90
16243;DHT22;11719;51.052;6.982;2023-05-07T08:13:50;18.70;99.90
16243;DHT22;11719;51.052;6.982;2023-05-07T08:16:16;18.70;99.90
16243;DHT22;11719;51.052;6.982;2023-05-07T08:18:42;18.70;99.90
16243;DHT22;11719;51.052;6.982;2023-05-07T08:21:08;18.80;99.90
16243;DHT22;11719;51.052;6.982;2023-05-07T08:23:34;18.90;99.90
16243;DHT22;11719;51.052;6.982;2023-05-07T08:26:00;18.90;99.90
16243;DHT22;11719;51.052;6.982;2023-05-07T08:28:26;18.90;99.90
16243;DHT22;11719;51.052;6.982;2023-05-07T08:30:51;18.90;99.90
16243;DHT22;11719;51.052;6.982;2023-05-07T08:33:17;18.90;99.90
16243;DHT22;11719;51.052;6.982;2023-05-07T08:35:43;18.90;99.90
16243;DHT22;11719;51.052;6.982;2023-05-07T08:38:09;18.90;99.90
16243;DHT22;11719;51.052;6.982;2023-05-07T08:40:39;18.90;99.90
16243;DHT22;11719;51.052;6.982;2023-05-07T08:43:06;19.00;99.90
16243;DHT22;11719;51.052;6.982;2023-05-07T08:45:34;18.90;99.90
16243;DHT22;11719;51.052;6.982;2023-05-07T08:48:02;18.90;99.90
16243;DHT22;11719;51.052;6.982;2023-05-07T08:50:29;18.90;99.90
16243;DHT22;11719;51.052;6.982;2023-05-07T08:52:55;18.90;99.90
16243;DHT22;11719;51.052;6.982;2023-05-07T08:55:22;19.00;99.90
16243;DHT22;11719;51.052;6.982;2023-05-07T08:57:49;19.10;99.90
16243;DHT22;11719;51.052;6.982;2023-05-07T09:00:15;19.00;99.90
16243;DHT22;11719;51.052;6.982;2023-05-07T09:02:41;18.90;99.90
16243;DHT22;11719;51.052;6.982;2023-05-07T09:05:08;18.90;99.90
16243;DHT22;11719;51.052;6.982;2023-05-07T09:07:33;18.90;99.90
16243;DHT22;11719;51.052;6.982;2023-05-07T09:10:04;18.90;99.90
16243;DHT22;11719;51.052;6.982;2023-05-07T09:12:31;19.00;99.90
16243;DHT22;11719;51.052;6.982;2023-05-07T09:14:57;19.00;99.90
16243;DHT22;11719;51.052;6.982;2023-05-07T09:17:24;19.00;99.90
16243;DHT22;11719;51.052;6.982;2023-05-07T09:19:50;18.90;99.90
16243;DHT22;11719;51.052;6.982;2023-05-07T09:22:16;18.90;99.90
16243;DHT22;11719;51.052;6.982;2023-05-07T09:24:50;18.80;99.90
16243;DHT22;11719;51.052;6.982;2023-05-07T09:27:17;18.80;99.90
16243;DHT22;11719;51.052;6.982;2023-05-07T09:29:44;18.70;99.90
16243;DHT22;11719;51.052;6.982;2023-05-07T09:32:10;18.70;99.90
16243;DHT22;11719;51.052;6.982;2023-05-07T09:34:36;18.70;99.90
16243;DHT22;11719;51.052;6.982;2023-05-07T09:37:03;18.70;99.90
16243;DHT22;11719;51.052;6.982;2023-05-07T09:39:46;18.70;99.90
16243;DHT22;11719;51.052;6.982;2023-05-07T09:42:13;18.90;99.90
16243;DHT22;11719;51.052;6.982;2023-05-07T09:44:43;18.90;99.90
16243;DHT22;11719;51.052;6.982;2023-05-07T09:47:10;19.00;99.90
16243;DHT22;11719;51.052;6.982;2023-05-07T09:49:39;19.00;99.90
16243;DHT22;11719;51.052;6.982;2023-05-07T09:52:07;19.00;99.90
16243;DHT22;11719;51.052;6.982;2023-05-07T09:54:36;19.00;99.90
16243;DHT22;11719;51.052;6.982;2023-05-07T09:57:04;19.20;99.90
16243;DHT22;11719;51.052;6.982;2023-05-07T09:59:32;19.40;99.90
16243;DHT22;11719;51.052;6.982;2023-05-07T10:01:59;19.50;99.90
16243;DHT22;11719;51.052;6.982;2023-05-07T10:04:26;19.40;99.90
16243;DHT22;11719;51.052;6.982;2023-05-07T10:06:52;19.30;99.90
16243;DHT22;11719;51.052;6.982;2023-05-07T10:09:19;19.30;99.90
16243;DHT22;11719;51.052;6.982;2023-05-07T10:11:45;19.20;99.90
16243;DHT22;11719;51.052;6.982;2023-05-07T10:14:17;19.20;99.90
16243;DHT22;11719;51.052;6.982;2023-05-07T10:16:43;19.10;99.90
16243;DHT22;11719;51.052;6.982;2023-05-07T10:19:09;19.10;99.90
16243;DHT22;11719;51.052;6.982;2023-05-07T10:21:39;19.30;99.90
16243;DHT22;11719;51.052;6.982;2023-05-07T10:24:32;19.30;99.90
16243;DHT22;11719;51.052;6.982;2023-05-07T10:27:01;19.50;99.90
16243;DHT22;11719;51.052;6.982;2023-05-07T10:32:42;19.70;99.90
16243;DHT22;11719;51.052;6.982;2023-05-07T10:35:21;19.80;99.90
16243;DHT22;11719;51.052;6.982;2023-05-07T10:37:50;19.50;99.90
16243;DHT22;11719;51.052;6.982;2023-05-07T10:40:16;19.50;99.90
16243;DHT22;11719;51.052;6.982;2023-05-07T10:45:25;19.30;99.90
16243;DHT22;11719;51.052;6.982;2023-05-07T10:48:15;19.30;99.90
16243;DHT22;11719;51.052;6.982;2023-05-07T10:50:44;19.20;99.90
16243;DHT22;11719;51.052;6.982;2023-05-07T10:55:43;18.90;99.90
16243;DHT22;11719;51.052;6.982;2023-05-07T11:00:47;18.90;99.90
16243;DHT22;11719;51.052;6.982;2023-05-07T11:03:14;19.10;99.90
16243;DHT22;11719;51.052;6.982;2023-05-07T11:05:41;19.10;99.90
16243;DHT22;11719;51.052;6.982;2023-05-07T11:08:08;18.90;99.90
16243;DHT22;11719;51.052;6.982;2023-05-07T11:10:54;18.90;99.90
16243;DHT22;11719;51.052;6.982;2023-05-07T11:13:41;18.90;99.90
16243;DHT22;11719;51.052;6.982;2023-05-07T11:16:23;18.70;99.90
16243;DHT22;11719;51.052;6.982;2023-05-07T11:18:54;18.70;99.90
16243;DHT22;11719;51.052;6.982;2023-05-07T11:21:37;18.70;99.90
16243;DHT22;11719;51.052;6.982;2023-05-07T11:24:06;18.70;99.90
16243;DHT22;11719;51.052;6.982;2023-05-07T11:27:02;18.60;99.90
16243;DHT22;11719;51.052;6.982;2023-05-07T11:29:27;18.60;99.90
16243;DHT22;11719;51.052;6.982;2023-05-07T11:31:55;18.60;99.90
16243;DHT22;11719;51.052;6.982;2023-05-07T11:34:22;18.60;99.90
16243;DHT22;11719;51.052;6.982;2023-05-07T11:36:49;18.70;99.90
16243;DHT22;11719;51.052;6.982;2023-05-07T11:41:51;18.80;99.90
16243;DHT22;11719;51.052;6.982;2023-05-07T11:44:17;19.00;99.90
16243;DHT22;11719;51.052;6.982;2023-05-07T11:46:44;18.90;99.90
16243;DHT22;11719;51.052;6.982;2023-05-07T11:49:10;18.80;99.90
16243;DHT22;11719;51.052;6.982;2023-05-07T11:51:36;18.80;99.90
16243;DHT22;11719;51.052;6.982;2023-05-07T11:54:06;19.00;99.90
16243;DHT22;11719;51.052;6.982;2023-05-07T11:56:37;19.00;99.90
16243;DHT22;11719;51.052;6.982;2023-05-07T11:59:02;18.90;99.90
16243;DHT22;11719;51.052;6.982;2023-05-07T12:01:28;18.80;99.90
16243;DHT22;11719;51.052;6.982;2023-05-07T12:03:54;18.80;99.90
16243;DHT22;11719;51.052;6.982;2023-05-07T12:06:20;19.00;99.90
16243;DHT22;11719;51.052;6.982;2023-05-07T12:08:46;19.20;99.90
16243;DHT22;11719;51.052;6.982;2023-05-07T12:11:21;19.10;99.90
16243;DHT22;11719;51.052;6.982;2023-05-07T12:13:48;19.00;99.90
16243;DHT22;11719;51.052;6.982;2023-05-07T12:16:14;18.90;99.90
16243;DHT22;11719;51.052;6.982;2023-05-07T12:18:40;19.10;99.90
16243;DHT22;11719;51.052;6.982;2023-05-07T12:21:07;19.00;99.90
16243;DHT22;11719;51.052;6.982;2023-05-07T12:23:36;18.90;99.90
16243;DHT22;11719;51.052;6.982;2023-05-07T12:26:03;18.80;99.90
16243;DHT22;11719;51.052;6.982;2023-05-07T12:28:29;18.90;99.90
16243;DHT22;11719;51.052;6.982;2023-05-07T12:30:56;18.80;99.90
16243;DHT22;11719;51.052;6.982;2023-05-07T12:33:26;18.80;99.90
16243;DHT22;11719;51.052;6.982;2023-05-07T12:35:54;18.70;99.90
16243;DHT22;11719;51.052;6.982;2023-05-07T12:38:21;18.60;99.90
16243;DHT22;11719;51.052;6.982;2023-05-07T12:40:50;18.50;99.90
16243;DHT22;11719;51.052;6.982;2023-05-07T12:43:25;18.60;99.90
16243;DHT22;11719;51.052;6.982;2023-05-07T12:45:55;18.60;99.90
16243;DHT22;11719;51.052;6.982;2023-05-07T12:48:23;18.50;99.90
16243;DHT22;11719;51.052;6.982;2023-05-07T12:50:50;18.50;99.90
16243;DHT22;11719;51.052;6.982;2023-05-07T12:53:16;18.50;99.90
16243;DHT22;11719;51.052;6.982;2023-05-07T12:55:43;18.60;99.90
16243;DHT22;11719;51.052;6.982;2023-05-07T12:58:31;18.60;99.90
16243;DHT22;11719;51.052;6.982;2023-05-07T13:01:00;18.60;99.90
16243;DHT22;11719;51.052;6.982;2023-05-07T13:03:34;18.70;99.90
16243;DHT22;11719;51.052;6.982;2023-05-07T13:06:05;18.70;99.90
16243;DHT22;11719;51.052;6.982;2023-05-07T13:08:40;18.60;99.90
16243;DHT22;11719;51.052;6.982;2023-05-07T13:11:09;18.60;99.90
16243;DHT22;11719;51.052;6.982;2023-05-07T13:13:37;18.80;99.90
16243;DHT22;11719;51.052;6.982;2023-05-07T13:16:05;19.10;99.90
16243;DHT22;11719;51.052;6.982;2023-05-07T13:18:33;19.30;99.90
16243;DHT22;11719;51.052;6.982;2023-05-07T13:21:00;19.40;99.90
16243;DHT22;11719;51.052;6.982;2023-05-07T13:23:27;19.50;99.90
16243;DHT22;11719;51.052;6.982;2023-05-07T13:25:53;19.40;99.90
16243;DHT22;11719;51.052;6.982;2023-05-07T13:28:20;19.30;99.90
16243;DHT22;11719;51.052;6.982;2023-05-07T13:30:46;19.30;99.90
16243;DHT22;11719;51.052;6.982;2023-05-07T13:33:12;19.30;99.90
16243;DHT22;11719;51.052;6.982;2023-05-07T13:35:38;19.30;99.90
16243;DHT22;11719;51.052;6.982;2023-05-07T13:38:05;19.30;99.90
16243;DHT22;11719;51.052;6.982;2023-05-07T13:40:30;19.30;99.90
16243;DHT22;11719;51.052;6.982;2023-05-07T13:42:57;19.30;99.90
16243;DHT22;11719;51.052;6.982;2023-05-07T13:45:25;19.30;99.90
16243;DHT22;11719;51.052;6.982;2023-05-07T13:47:55;19.30;99.90
16243;DHT22;11719;51.052;6.982;2023-05-07T13:50:21;19.30;99.90
16243;DHT22;11719;51.052;6.982;2023-05-07T13:52:47;19.30;99.90
16243;DHT22;11719;51.052;6.982;2023-05-07T13:55:19;19.30;99.90
16243;DHT22;11719;51.052;6.982;2023-05-07T13:57:47;19.20;99.90
16243;DHT22;11719;51.052;6.982;2023-05-07T14:00:13;19.20;99.90
16243;DHT22;11719;51.052;6.982;2023-05-07T14:02:40;19.30;99.90
16243;DHT22;11719;51.052;6.982;2023-05-07T14:05:06;19.40;99.90
16243;DHT22;11719;51.052;6.982;2023-05-07T14:07:32;19.40;99.90
16243;DHT22;11719;51.052;6.982;2023-05-07T14:09:58;19.40;99.90
16243;DHT22;11719;51.052;6.982;2023-05-07T14:12:24;19.40;99.90
16243;DHT22;11719;51.052;6.982;2023-05-07T14:14:50;19.40;99.90
16243;DHT22;11719;51.052;6.982;2023-05-07T14:17:19;19.50;99.90
16243;DHT22;11719;51.052;6.982;2023-05-07T14:19:45;19.50;99.90
16243;DHT22;11719;51.052;6.982;2023-05-07T14:22:12;19.50;99.90
16243;DHT22;11719;51.052;6.982;2023-05-07T14:24:38;19.50;99.90
16243;DHT22;11719;51.052;6.982;2023-05-07T14:27:05;19.60;99.90
16243;DHT22;11719;51.052;6.982;2023-05-07T14:29:31;19.70;99.90
16243;DHT22;11719;51.052;6.982;2023-05-07T14:31:57;19.70;99.90
16243;DHT22;11719;51.052;6.982;2023-05-07T14:34:22;19.40;99.90
16243;DHT22;11719;51.052;6.982;2023-05-07T14:36:48;19.40;99.90
16243;DHT22;11719;51.052;6.982;2023-05-07T14:39:14;19.60;99.90
16243;DHT22;11719;51.052;6.982;2023-05-07T14:41:40;19.60;99.90
16243;DHT22;11719;51.052;6.982;2023-05-07T14:44:06;19.70;99.90
16243;DHT22;11719;51.052;6.982;2023-05-07T14:46:32;19.90;99.90
16243;DHT22;11719;51.052;6.982;2023-05-07T14:48:57;20.00;99.90
16243;DHT22;11719;51.052;6.982;2023-05-07T14:51:23;19.90;99.90
16243;DHT22;11719;51.052;6.982;2023-05-07T14:53:50;19.90;99.90
16243;DHT22;11719;51.052;6.982;2023-05-07T14:56:16;20.00;99.90
16243;DHT22;11719;51.052;6.982;2023-05-07T14:58:43;19.90;99.90
16243;DHT22;11719;51.052;6.982;2023-05-07T15:01:09;19.70;99.90
16243;DHT22;11719;51.052;6.982;2023-05-07T15:03:35;19.50;99.90
16243;DHT22;11719;51.052;6.982;2023-05-07T15:06:02;19.40;99.90
16243;DHT22;11719;51.052;6.982;2023-05-07T15:08:28;19.40;99.90
16243;DHT22;11719;51.052;6.982;2023-05-07T15:10:54;19.20;99.90
16243;DHT22;11719;51.052;6.982;2023-05-07T15:13:21;19.10;99.90
16243;DHT22;11719;51.052;6.982;2023-05-07T15:15:47;19.00;99.90
16243;DHT22;11719;51.052;6.982;2023-05-07T15:18:13;18.80;99.90
16243;DHT22;11719;51.052;6.982;2023-05-07T15:20:40;18.80;99.90
16243;DHT22;11719;51.052;6.982;2023-05-07T15:23:07;18.70;99.90
16243;DHT22;11719;51.052;6.982;2023-05-07T15:25:37;18.60;99.90
16243;DHT22;11719;51.052;6.982;2023-05-07T15:28:03;18.60;99.90
16243;DHT22;11719;51.052;6.982;2023-05-07T15:30:29;18.60;99.90
16243;DHT22;11719;51.052;6.982;2023-05-07T15:32:54;18.70;99.90
16243;DHT22;11719;51.052;6.982;2023-05-07T15:35:21;18.80;99.90
16243;DHT22;11719;51.052;6.982;2023-05-07T15:37:50;18.80;99.90
16243;DHT22;11719;51.052;6.982;2023-05-07T15:40:16;18.70;99.90
16243;DHT22;11719;51.052;6.982;2023-05-07T15:42:44;18.80;99.90
16243;DHT22;11719;51.052;6.982;2023-05-07T15:45:10;18.70;99.90
16243;DHT22;11719;51.052;6.982;2023-05-07T15:47:36;18.60;99.90